sensor_id;sensor_type;location;lat;lon;timestamp;P1;durP1;ratioP1;P2;durP2;ratioP2
71790;SDS011;59638;52.126;5.434;2023-07-31T00:02:06;0.50;;;0.10;;
71790;SDS011;59638;52.126;5.434;2023-07-31T00:04:32;8.50;;;0.25;;
71790;SDS011;59638;52.126;5.434;2023-07-31T00:06:59;3.35;;;0.20;;
71790;SDS011;59638;52.126;5.434;2023-07-31T00:09:25;2.00;;;0.20;;
71790;SDS011;59638;52.126;5.434;2023-07-31T00:11:52;3.70;;;0.30;;
71790;SDS011;59638;52.126;5.434;2023-07-31T00:14:18;1.00;;;0.20;;
71790;SDS011;59638;52.126;5.434;2023-07-31T00:16:44;2.25;;;0.17;;
71790;SDS011;59638;52.126;5.434;2023-07-31T00:19:11;1.65;;;0.20;;
71790;SDS011;59638;52.126;5.434;2023-07-31T00:21:37;3.53;;;0.20;;
71790;SDS011;59638;52.126;5.434;2023-07-31T00:24:04;1.73;;;0.10;;
71790;SDS011;59638;52.126;5.434;2023-07-31T00:26:30;1.38;;;0.20;;
71790;SDS011;59638;52.126;5.434;2023-07-31T00:28:57;0.80;;;0.20;;
71790;SDS011;59638;52.126;5.434;2023-07-31T00:31:23;1.67;;;0.40;;
71790;SDS011;59638;52.126;5.434;2023-07-31T00:33:50;5.50;;;0.67;;
71790;SDS011;59638;52.126;5.434;2023-07-31T00:36:16;1.48;;;0.50;;
71790;SDS011;59638;52.126;5.434;2023-07-31T00:38:44;3.72;;;0.70;;
71790;SDS011;59638;52.126;5.434;2023-07-31T00:41:10;4.75;;;1.00;;
71790;SDS011;59638;52.126;5.434;2023-07-31T00:43:37;5.90;;;0.90;;
71790;SDS011;59638;52.126;5.434;2023-07-31T00:46:03;5.60;;;1.27;;
71790;SDS011;59638;52.126;5.434;2023-07-31T00:48:30;11.93;;;1.65;;
71790;SDS011;59638;52.126;5.434;2023-07-31T00:50:58;14.52;;;1.73;;
71790;SDS011;59638;52.126;5.434;2023-07-31T00:53:24;13.82;;;2.28;;
71790;SDS011;59638;52.126;5.434;2023-07-31T00:55:51;21.63;;;2.95;;
71790;SDS011;59638;52.126;5.434;2023-07-31T00:58:18;18.50;;;2.27;;
71790;SDS011;59638;52.126;5.434;2023-07-31T01:00:44;15.70;;;2.78;;
71790;SDS011;59638;52.126;5.434;2023-07-31T01:03:11;18.00;;;2.72;;
71790;SDS011;59638;52.126;5.434;2023-07-31T01:06:03;16.52;;;3.03;;
71790;SDS011;59638;52.126;5.434;2023-07-31T01:11:30;19.27;;;3.03;;
71790;SDS011;59638;52.126;5.434;2023-07-31T01:13:58;14.38;;;2.53;;
71790;SDS011;59638;52.126;5.434;2023-07-31T01:16:25;17.55;;;3.90;;
71790;SDS011;59638;52.126;5.434;2023-07-31T01:18:52;18.98;;;2.72;;
71790;SDS011;59638;52.126;5.434;2023-07-31T01:26:46;15.23;;;2.35;;
71790;SDS011;59638;52.126;5.434;2023-07-31T01:31:59;5.22;;;0.98;;
71790;SDS011;59638;52.126;5.434;2023-07-31T01:34:29;5.43;;;1.20;;
71790;SDS011;59638;52.126;5.434;2023-07-31T01:36:56;6.23;;;1.20;;
71790;SDS011;59638;52.126;5.434;2023-07-31T01:39:25;6.28;;;1.40;;
71790;SDS011;59638;52.126;5.434;2023-07-31T01:41:52;6.57;;;1.77;;
71790;SDS011;59638;52.126;5.434;2023-07-31T01:44:18;8.77;;;1.27;;
71790;SDS011;59638;52.126;5.434;2023-07-31T01:46:44;9.10;;;1.60;;
71790;SDS011;59638;52.126;5.434;2023-07-31T01:49:11;19.80;;;2.33;;
71790;SDS011;59638;52.126;5.434;2023-07-31T01:51:37;16.33;;;2.30;;
71790;SDS011;59638;52.126;5.434;2023-07-31T01:54:04;17.85;;;2.95;;
71790;SDS011;59638;52.126;5.434;2023-07-31T01:56:31;19.98;;;2.70;;
71790;SDS011;59638;52.126;5.434;2023-07-31T01:58:57;15.95;;;3.38;;
71790;SDS011;59638;52.126;5.434;2023-07-31T02:01:24;13.57;;;2.63;;
71790;SDS011;59638;52.126;5.434;2023-07-31T02:03:50;13.23;;;2.88;;
71790;SDS011;59638;52.126;5.434;2023-07-31T02:06:17;14.55;;;3.33;;
71790;SDS011;59638;52.126;5.434;2023-07-31T02:08:44;18.63;;;3.17;;
71790;SDS011;59638;52.126;5.434;2023-07-31T02:11:10;14.65;;;1.98;;
71790;SDS011;59638;52.126;5.434;2023-07-31T02:13:36;10.50;;;2.37;;
71790;SDS011;59638;52.126;5.434;2023-07-31T02:16:03;11.57;;;2.10;;
71790;SDS011;59638;52.126;5.434;2023-07-31T02:18:29;11.80;;;2.63;;
71790;SDS011;59638;52.126;5.434;2023-07-31T02:20:56;11.70;;;2.50;;
71790;SDS011;59638;52.126;5.434;2023-07-31T02:23:22;14.05;;;2.53;;
71790;SDS011;59638;52.126;5.434;2023-07-31T02:25:49;9.47;;;2.50;;
71790;SDS011;59638;52.126;5.434;2023-07-31T02:28:15;9.70;;;2.40;;
71790;SDS011;59638;52.126;5.434;2023-07-31T02:30:43;18.63;;;2.55;;
71790;SDS011;59638;52.126;5.434;2023-07-31T02:33:11;13.88;;;2.30;;
71790;SDS011;59638;52.126;5.434;2023-07-31T02:35:38;16.48;;;2.88;;
71790;SDS011;59638;52.126;5.434;2023-07-31T02:38:04;14.03;;;2.17;;
71790;SDS011;59638;52.126;5.434;2023-07-31T02:40:31;15.85;;;2.35;;
71790;SDS011;59638;52.126;5.434;2023-07-31T02:42:57;14.05;;;2.05;;
71790;SDS011;59638;52.126;5.434;2023-07-31T02:45:23;8.70;;;2.30;;
71790;SDS011;59638;52.126;5.434;2023-07-31T02:47:50;7.43;;;2.00;;
71790;SDS011;59638;52.126;5.434;2023-07-31T02:50:17;9.60;;;2.13;;
71790;SDS011;59638;52.126;5.434;2023-07-31T02:52:43;12.30;;;2.55;;
71790;SDS011;59638;52.126;5.434;2023-07-31T02:55:10;9.20;;;2.25;;
71790;SDS011;59638;52.126;5.434;2023-07-31T02:57:36;18.08;;;2.75;;
71790;SDS011;59638;52.126;5.434;2023-07-31T03:00:03;14.90;;;2.97;;
71790;SDS011;59638;52.126;5.434;2023-07-31T03:02:32;16.93;;;3.33;;
71790;SDS011;59638;52.126;5.434;2023-07-31T03:04:59;16.30;;;3.88;;
71790;SDS011;59638;52.126;5.434;2023-07-31T03:07:25;13.55;;;2.38;;
71790;SDS011;59638;52.126;5.434;2023-07-31T03:09:52;18.77;;;3.15;;
71790;SDS011;59638;52.126;5.434;2023-07-31T03:12:18;14.50;;;3.30;;
71790;SDS011;59638;52.126;5.434;2023-07-31T03:14:45;11.83;;;3.10;;
71790;SDS011;59638;52.126;5.434;2023-07-31T03:17:12;23.77;;;3.20;;
71790;SDS011;59638;52.126;5.434;2023-07-31T03:19:38;12.93;;;2.80;;
71790;SDS011;59638;52.126;5.434;2023-07-31T03:22:05;13.38;;;3.30;;
71790;SDS011;59638;52.126;5.434;2023-07-31T03:24:31;17.98;;;3.85;;
71790;SDS011;59638;52.126;5.434;2023-07-31T03:26:58;13.33;;;3.23;;
71790;SDS011;59638;52.126;5.434;2023-07-31T03:29:24;13.77;;;3.63;;
71790;SDS011;59638;52.126;5.434;2023-07-31T03:31:51;16.75;;;4.00;;
71790;SDS011;59638;52.126;5.434;2023-07-31T03:34:17;22.02;;;3.67;;
71790;SDS011;59638;52.126;5.434;2023-07-31T03:36:44;27.10;;;4.10;;
71790;SDS011;59638;52.126;5.434;2023-07-31T03:39:10;14.13;;;3.70;;
71790;SDS011;59638;52.126;5.434;2023-07-31T03:41:37;18.00;;;3.35;;
71790;SDS011;59638;52.126;5.434;2023-07-31T03:44:03;16.98;;;3.47;;
71790;SDS011;59638;52.126;5.434;2023-07-31T03:46:30;15.35;;;3.50;;
71790;SDS011;59638;52.126;5.434;2023-07-31T03:48:56;23.95;;;3.78;;
71790;SDS011;59638;52.126;5.434;2023-07-31T03:51:23;14.37;;;3.27;;
71790;SDS011;59638;52.126;5.434;2023-07-31T03:53:49;22.65;;;3.70;;
71790;SDS011;59638;52.126;5.434;2023-07-31T03:56:16;11.85;;;3.28;;
71790;SDS011;59638;52.126;5.434;2023-07-31T03:58:42;22.88;;;3.80;;
71790;SDS011;59638;52.126;5.434;2023-07-31T04:01:09;14.52;;;3.63;;
71790;SDS011;59638;52.126;5.434;2023-07-31T04:03:35;13.87;;;3.17;;
71790;SDS011;59638;52.126;5.434;2023-07-31T04:06:02;16.35;;;3.17;;
71790;SDS011;59638;52.126;5.434;2023-07-31T04:08:29;20.45;;;4.15;;
71790;SDS011;59638;52.126;5.434;2023-07-31T04:10:55;19.63;;;4.97;;
71790;SDS011;59638;52.126;5.434;2023-07-31T04:13:22;18.60;;;4.18;;
71790;SDS011;59638;52.126;5.434;2023-07-31T04:15:49;21.83;;;3.83;;
71790;SDS011;59638;52.126;5.434;2023-07-31T04:18:19;15.27;;;3.42;;
71790;SDS011;59638;52.126;5.434;2023-07-31T04:20:45;17.73;;;3.83;;
71790;SDS011;59638;52.126;5.434;2023-07-31T04:23:11;19.20;;;3.90;;
71790;SDS011;59638;52.126;5.434;2023-07-31T04:25:38;19.33;;;4.82;;
71790;SDS011;59638;52.126;5.434;2023-07-31T04:28:05;15.50;;;3.73;;
71790;SDS011;59638;52.126;5.434;2023-07-31T04:30:31;17.55;;;4.53;;
71790;SDS011;59638;52.126;5.434;2023-07-31T04:32:58;14.80;;;3.60;;
71790;SDS011;59638;52.126;5.434;2023-07-31T04:35:24;19.27;;;3.00;;
71790;SDS011;59638;52.126;5.434;2023-07-31T04:37:51;16.40;;;3.97;;
71790;SDS011;59638;52.126;5.434;2023-07-31T04:40:17;14.30;;;3.37;;
71790;SDS011;59638;52.126;5.434;2023-07-31T04:42:43;15.35;;;4.18;;
71790;SDS011;59638;52.126;5.434;2023-07-31T04:45:10;15.70;;;4.03;;
71790;SDS011;59638;52.126;5.434;2023-07-31T04:47:36;17.65;;;2.97;;
71790;SDS011;59638;52.126;5.434;2023-07-31T04:50:03;15.23;;;3.13;;
71790;SDS011;59638;52.126;5.434;2023-07-31T04:52:30;11.73;;;2.70;;
71790;SDS011;59638;52.126;5.434;2023-07-31T04:54:56;17.77;;;3.50;;
71790;SDS011;59638;52.126;5.434;2023-07-31T04:57:23;13.85;;;3.78;;
71790;SDS011;59638;52.126;5.434;2023-07-31T04:59:49;19.80;;;3.80;;
71790;SDS011;59638;52.126;5.434;2023-07-31T05:02:16;11.80;;;3.17;;
71790;SDS011;59638;52.126;5.434;2023-07-31T05:04:43;11.90;;;2.70;;
71790;SDS011;59638;52.126;5.434;2023-07-31T05:07:10;14.23;;;3.25;;
71790;SDS011;59638;52.126;5.434;2023-07-31T05:09:36;16.55;;;3.00;;
71790;SDS011;59638;52.126;5.434;2023-07-31T05:12:04;13.27;;;2.75;;
71790;SDS011;59638;52.126;5.434;2023-07-31T05:14:31;15.35;;;2.85;;
71790;SDS011;59638;52.126;5.434;2023-07-31T05:16:58;10.77;;;3.00;;
71790;SDS011;59638;52.126;5.434;2023-07-31T05:19:24;13.35;;;3.10;;
71790;SDS011;59638;52.126;5.434;2023-07-31T05:21:51;14.85;;;3.67;;
71790;SDS011;59638;52.126;5.434;2023-07-31T05:24:17;11.57;;;2.92;;
71790;SDS011;59638;52.126;5.434;2023-07-31T05:26:44;16.48;;;2.92;;
71790;SDS011;59638;52.126;5.434;2023-07-31T05:29:10;9.93;;;2.27;;
71790;SDS011;59638;52.126;5.434;2023-07-31T05:31:36;17.27;;;2.85;;
71790;SDS011;59638;52.126;5.434;2023-07-31T05:34:04;10.82;;;1.73;;
71790;SDS011;59638;52.126;5.434;2023-07-31T05:36:31;11.10;;;2.47;;
71790;SDS011;59638;52.126;5.434;2023-07-31T05:38:57;6.57;;;2.15;;
71790;SDS011;59638;52.126;5.434;2023-07-31T05:41:24;7.03;;;1.40;;
71790;SDS011;59638;52.126;5.434;2023-07-31T05:43:50;9.68;;;1.60;;
71790;SDS011;59638;52.126;5.434;2023-07-31T05:46:17;5.13;;;1.17;;
71790;SDS011;59638;52.126;5.434;2023-07-31T05:48:44;4.72;;;1.20;;
71790;SDS011;59638;52.126;5.434;2023-07-31T05:51:10;3.53;;;0.70;;
71790;SDS011;59638;52.126;5.434;2023-07-31T05:53:37;5.13;;;1.17;;
71790;SDS011;59638;52.126;5.434;2023-07-31T05:56:07;4.45;;;1.30;;
71790;SDS011;59638;52.126;5.434;2023-07-31T05:58:33;3.90;;;1.20;;
71790;SDS011;59638;52.126;5.434;2023-07-31T06:01:00;4.65;;;1.52;;
71790;SDS011;59638;52.126;5.434;2023-07-31T06:03:26;6.30;;;1.60;;
71790;SDS011;59638;52.126;5.434;2023-07-31T06:05:53;7.13;;;1.67;;
71790;SDS011;59638;52.126;5.434;2023-07-31T06:08:19;6.35;;;1.63;;
71790;SDS011;59638;52.126;5.434;2023-07-31T06:10:45;7.38;;;1.80;;
71790;SDS011;59638;52.126;5.434;2023-07-31T06:13:12;6.95;;;1.65;;
71790;SDS011;59638;52.126;5.434;2023-07-31T06:15:38;6.63;;;1.90;;
71790;SDS011;59638;52.126;5.434;2023-07-31T06:18:05;5.27;;;2.00;;
71790;SDS011;59638;52.126;5.434;2023-07-31T06:20:34;6.47;;;2.10;;
71790;SDS011;59638;52.126;5.434;2023-07-31T06:23:01;4.85;;;1.65;;
71790;SDS011;59638;52.126;5.434;2023-07-31T06:25:27;6.72;;;1.15;;
71790;SDS011;59638;52.126;5.434;2023-07-31T06:27:54;5.85;;;1.35;;
71790;SDS011;59638;52.126;5.434;2023-07-31T06:30:20;3.40;;;1.20;;
71790;SDS011;59638;52.126;5.434;2023-07-31T06:32:47;3.30;;;1.23;;
71790;SDS011;59638;52.126;5.434;2023-07-31T06:35:13;5.55;;;1.45;;
71790;SDS011;59638;52.126;5.434;2023-07-31T06:37:40;7.18;;;1.63;;
71790;SDS011;59638;52.126;5.434;2023-07-31T06:40:06;5.90;;;1.40;;
71790;SDS011;59638;52.126;5.434;2023-07-31T06:42:35;8.60;;;1.57;;
71790;SDS011;59638;52.126;5.434;2023-07-31T06:45:02;3.65;;;0.93;;
71790;SDS011;59638;52.126;5.434;2023-07-31T06:47:28;4.90;;;0.95;;
71790;SDS011;59638;52.126;5.434;2023-07-31T06:49:55;4.28;;;1.38;;
71790;SDS011;59638;52.126;5.434;2023-07-31T06:52:22;2.72;;;1.02;;
71790;SDS011;59638;52.126;5.434;2023-07-31T06:55:00;2.67;;;1.17;;
71790;SDS011;59638;52.126;5.434;2023-07-31T06:57:41;5.28;;;0.80;;
71790;SDS011;59638;52.126;5.434;2023-07-31T07:00:08;4.80;;;1.02;;
71790;SDS011;59638;52.126;5.434;2023-07-31T07:02:35;1.55;;;0.68;;
71790;SDS011;59638;52.126;5.434;2023-07-31T07:05:01;3.25;;;1.00;;
71790;SDS011;59638;52.126;5.434;2023-07-31T07:07:28;4.60;;;0.93;;
71790;SDS011;59638;52.126;5.434;2023-07-31T07:09:55;3.92;;;1.08;;
71790;SDS011;59638;52.126;5.434;2023-07-31T07:12:21;5.90;;;1.52;;
71790;SDS011;59638;52.126;5.434;2023-07-31T07:14:48;3.10;;;0.90;;
71790;SDS011;59638;52.126;5.434;2023-07-31T07:17:14;2.50;;;1.10;;
71790;SDS011;59638;52.126;5.434;2023-07-31T07:19:40;3.70;;;0.97;;
71790;SDS011;59638;52.126;5.434;2023-07-31T07:22:08;4.43;;;1.13;;
71790;SDS011;59638;52.126;5.434;2023-07-31T07:24:34;3.15;;;1.05;;
71790;SDS011;59638;52.126;5.434;2023-07-31T07:27:00;5.80;;;1.13;;
71790;SDS011;59638;52.126;5.434;2023-07-31T07:29:27;3.72;;;1.63;;
71790;SDS011;59638;52.126;5.434;2023-07-31T07:31:53;1.50;;;0.67;;
71790;SDS011;59638;52.126;5.434;2023-07-31T07:34:22;2.95;;;0.77;;
71790;SDS011;59638;52.126;5.434;2023-07-31T07:36:50;5.18;;;1.33;;
71790;SDS011;59638;52.126;5.434;2023-07-31T07:39:16;2.85;;;0.93;;
71790;SDS011;59638;52.126;5.434;2023-07-31T07:41:43;5.20;;;1.02;;
71790;SDS011;59638;52.126;5.434;2023-07-31T07:44:09;2.90;;;0.97;;
71790;SDS011;59638;52.126;5.434;2023-07-31T07:46:36;3.90;;;1.10;;
71790;SDS011;59638;52.126;5.434;2023-07-31T07:49:03;4.97;;;1.13;;
71790;SDS011;59638;52.126;5.434;2023-07-31T07:51:29;3.00;;;1.17;;
71790;SDS011;59638;52.126;5.434;2023-07-31T07:53:58;3.17;;;1.38;;
71790;SDS011;59638;52.126;5.434;2023-07-31T07:56:25;2.67;;;0.97;;
71790;SDS011;59638;52.126;5.434;2023-07-31T07:58:53;3.03;;;0.75;;
71790;SDS011;59638;52.126;5.434;2023-07-31T08:01:20;3.15;;;1.05;;
71790;SDS011;59638;52.126;5.434;2023-07-31T08:03:47;2.15;;;0.80;;
71790;SDS011;59638;52.126;5.434;2023-07-31T08:06:14;4.13;;;0.77;;
71790;SDS011;59638;52.126;5.434;2023-07-31T08:08:41;3.53;;;0.90;;
71790;SDS011;59638;52.126;5.434;2023-07-31T08:11:07;1.65;;;0.50;;
71790;SDS011;59638;52.126;5.434;2023-07-31T08:13:33;2.35;;;0.45;;
71790;SDS011;59638;52.126;5.434;2023-07-31T08:16:00;1.83;;;0.80;;
71790;SDS011;59638;52.126;5.434;2023-07-31T08:18:26;1.75;;;0.40;;
71790;SDS011;59638;52.126;5.434;2023-07-31T08:20:53;1.63;;;0.50;;
71790;SDS011;59638;52.126;5.434;2023-07-31T08:23:19;4.95;;;1.05;;
71790;SDS011;59638;52.126;5.434;2023-07-31T08:25:46;4.82;;;0.70;;
71790;SDS011;59638;52.126;5.434;2023-07-31T08:28:13;2.28;;;0.60;;
71790;SDS011;59638;52.126;5.434;2023-07-31T08:30:39;3.08;;;1.00;;
71790;SDS011;59638;52.126;5.434;2023-07-31T08:33:06;1.40;;;0.60;;
71790;SDS011;59638;52.126;5.434;2023-07-31T08:35:32;2.10;;;0.40;;
71790;SDS011;59638;52.126;5.434;2023-07-31T08:37:59;4.13;;;0.57;;
71790;SDS011;59638;52.126;5.434;2023-07-31T08:40:25;3.53;;;0.57;;
71790;SDS011;59638;52.126;5.434;2023-07-31T08:42:53;1.42;;;0.40;;
71790;SDS011;59638;52.126;5.434;2023-07-31T08:45:22;1.20;;;0.73;;
71790;SDS011;59638;52.126;5.434;2023-07-31T08:47:50;1.52;;;0.30;;
71790;SDS011;59638;52.126;5.434;2023-07-31T08:50:18;4.60;;;0.35;;
71790;SDS011;59638;52.126;5.434;2023-07-31T08:52:47;0.52;;;0.20;;
71790;SDS011;59638;52.126;5.434;2023-07-31T08:55:15;1.73;;;0.30;;
71790;SDS011;59638;52.126;5.434;2023-07-31T08:57:41;0.70;;;0.30;;
71790;SDS011;59638;52.126;5.434;2023-07-31T09:00:09;1.02;;;0.30;;
71790;SDS011;59638;52.126;5.434;2023-07-31T09:02:38;1.33;;;0.30;;
71790;SDS011;59638;52.126;5.434;2023-07-31T09:05:11;2.60;;;0.70;;
71790;SDS011;59638;52.126;5.434;2023-07-31T09:07:38;1.15;;;0.20;;
71790;SDS011;59638;52.126;5.434;2023-07-31T09:10:06;1.60;;;0.30;;
71790;SDS011;59638;52.126;5.434;2023-07-31T09:12:33;1.08;;;0.35;;
71790;SDS011;59638;52.126;5.434;2023-07-31T09:15:00;1.77;;;0.50;;
71790;SDS011;59638;52.126;5.434;2023-07-31T09:17:33;1.80;;;0.40;;
71790;SDS011;59638;52.126;5.434;2023-07-31T09:20:18;1.45;;;0.50;;
71790;SDS011;59638;52.126;5.434;2023-07-31T09:22:46;2.33;;;0.50;;
71790;SDS011;59638;52.126;5.434;2023-07-31T09:25:15;2.25;;;0.50;;
71790;SDS011;59638;52.126;5.434;2023-07-31T09:27:46;1.95;;;0.63;;
71790;SDS011;59638;52.126;5.434;2023-07-31T09:30:17;3.33;;;0.75;;
71790;SDS011;59638;52.126;5.434;2023-07-31T09:32:44;0.80;;;0.30;;
71790;SDS011;59638;52.126;5.434;2023-07-31T09:35:21;2.90;;;0.40;;
71790;SDS011;59638;52.126;5.434;2023-07-31T09:37:49;2.30;;;0.57;;
71790;SDS011;59638;52.126;5.434;2023-07-31T09:40:26;1.75;;;0.60;;
71790;SDS011;59638;52.126;5.434;2023-07-31T09:42:57;2.10;;;0.85;;
71790;SDS011;59638;52.126;5.434;2023-07-31T09:45:26;1.95;;;0.75;;
71790;SDS011;59638;52.126;5.434;2023-07-31T09:48:07;2.30;;;0.50;;
71790;SDS011;59638;52.126;5.434;2023-07-31T09:50:38;1.73;;;0.40;;
71790;SDS011;59638;52.126;5.434;2023-07-31T09:53:06;1.42;;;0.63;;
71790;SDS011;59638;52.126;5.434;2023-07-31T09:55:34;1.13;;;0.50;;
71790;SDS011;59638;52.126;5.434;2023-07-31T09:58:03;1.55;;;0.47;;
71790;SDS011;59638;52.126;5.434;2023-07-31T10:00:31;4.07;;;0.63;;
71790;SDS011;59638;52.126;5.434;2023-07-31T10:02:58;1.42;;;0.70;;
71790;SDS011;59638;52.126;5.434;2023-07-31T10:05:34;1.42;;;0.70;;
71790;SDS011;59638;52.126;5.434;2023-07-31T10:08:01;1.02;;;0.52;;
71790;SDS011;59638;52.126;5.434;2023-07-31T10:10:29;2.10;;;0.80;;
71790;SDS011;59638;52.126;5.434;2023-07-31T10:12:57;2.37;;;0.70;;
71790;SDS011;59638;52.126;5.434;2023-07-31T10:15:26;1.83;;;0.57;;
71790;SDS011;59638;52.126;5.434;2023-07-31T10:17:53;4.22;;;0.82;;
71790;SDS011;59638;52.126;5.434;2023-07-31T10:20:21;1.65;;;0.82;;
71790;SDS011;59638;52.126;5.434;2023-07-31T10:22:47;1.85;;;0.98;;
71790;SDS011;59638;52.126;5.434;2023-07-31T10:25:15;1.30;;;0.73;;
71790;SDS011;59638;52.126;5.434;2023-07-31T10:27:43;4.22;;;1.20;;
71790;SDS011;59638;52.126;5.434;2023-07-31T10:30:11;3.53;;;1.70;;
71790;SDS011;59638;52.126;5.434;2023-07-31T10:32:45;3.38;;;1.95;;
71790;SDS011;59638;52.126;5.434;2023-07-31T10:35:14;3.22;;;2.25;;
71790;SDS011;59638;52.126;5.434;2023-07-31T10:37:45;3.57;;;1.03;;
71790;SDS011;59638;52.126;5.434;2023-07-31T10:45:11;2.85;;;1.60;;
71790;SDS011;59638;52.126;5.434;2023-07-31T10:47:38;2.15;;;1.30;;
71790;SDS011;59638;52.126;5.434;2023-07-31T10:52:46;2.42;;;1.63;;
71790;SDS011;59638;52.126;5.434;2023-07-31T10:56:00;2.92;;;2.03;;
71790;SDS011;59638;52.126;5.434;2023-07-31T10:58:11;3.85;;;1.60;;
71790;SDS011;59638;52.126;5.434;2023-07-31T11:00:41;1.70;;;1.27;;
71790;SDS011;59638;52.126;5.434;2023-07-31T11:03:16;4.50;;;1.40;;
71790;SDS011;59638;52.126;5.434;2023-07-31T11:05:45;1.90;;;1.30;;
71790;SDS011;59638;52.126;5.434;2023-07-31T11:08:13;2.90;;;1.00;;
71790;SDS011;59638;52.126;5.434;2023-07-31T11:11:11;3.70;;;1.15;;
71790;SDS011;59638;52.126;5.434;2023-07-31T11:13:47;1.50;;;0.70;;
71790;SDS011;59638;52.126;5.434;2023-07-31T11:16:19;1.60;;;0.60;;
71790;SDS011;59638;52.126;5.434;2023-07-31T11:18:47;2.30;;;0.80;;
71790;SDS011;59638;52.126;5.434;2023-07-31T11:21:16;1.52;;;0.60;;
71790;SDS011;59638;52.126;5.434;2023-07-31T11:23:51;1.33;;;0.40;;
71790;SDS011;59638;52.126;5.434;2023-07-31T11:26:20;1.58;;;0.40;;
71790;SDS011;59638;52.126;5.434;2023-07-31T11:28:46;0.83;;;0.30;;
71790;SDS011;59638;52.126;5.434;2023-07-31T11:31:14;0.80;;;0.20;;
71790;SDS011;59638;52.126;5.434;2023-07-31T11:33:41;0.70;;;0.35;;
71790;SDS011;59638;52.126;5.434;2023-07-31T11:36:14;0.95;;;0.40;;
71790;SDS011;59638;52.126;5.434;2023-07-31T11:38:44;0.90;;;0.30;;
71790;SDS011;59638;52.126;5.434;2023-07-31T11:41:13;1.50;;;0.30;;
71790;SDS011;59638;52.126;5.434;2023-07-31T11:43:40;0.90;;;0.30;;
71790;SDS011;59638;52.126;5.434;2023-07-31T11:46:07;1.20;;;0.40;;
71790;SDS011;59638;52.126;5.434;2023-07-31T11:48:34;1.48;;;0.45;;
71790;SDS011;59638;52.126;5.434;2023-07-31T11:51:05;1.40;;;0.70;;
71790;SDS011;59638;52.126;5.434;2023-07-31T11:54:08;3.20;;;0.70;;
71790;SDS011;59638;52.126;5.434;2023-07-31T11:56:28;1.77;;;0.82;;
71790;SDS011;59638;52.126;5.434;2023-07-31T11:58:56;2.97;;;0.80;;
71790;SDS011;59638;52.126;5.434;2023-07-31T12:01:25;3.03;;;0.90;;
71790;SDS011;59638;52.126;5.434;2023-07-31T12:03:56;2.53;;;0.85;;
71790;SDS011;59638;52.126;5.434;2023-07-31T12:06:36;1.77;;;1.13;;
71790;SDS011;59638;52.126;5.434;2023-07-31T12:09:04;4.22;;;1.73;;
71790;SDS011;59638;52.126;5.434;2023-07-31T12:11:31;2.58;;;1.85;;
71790;SDS011;59638;52.126;5.434;2023-07-31T12:14:17;2.90;;;1.23;;
71790;SDS011;59638;52.126;5.434;2023-07-31T12:16:46;2.08;;;1.10;;
71790;SDS011;59638;52.126;5.434;2023-07-31T12:19:12;4.27;;;1.77;;
71790;SDS011;59638;52.126;5.434;2023-07-31T12:21:39;2.53;;;1.67;;
71790;SDS011;59638;52.126;5.434;2023-07-31T12:24:05;2.28;;;1.77;;
71790;SDS011;59638;52.126;5.434;2023-07-31T12:26:35;2.25;;;1.00;;
71790;SDS011;59638;52.126;5.434;2023-07-31T12:29:01;1.80;;;0.63;;
71790;SDS011;59638;52.126;5.434;2023-07-31T12:31:28;1.33;;;0.70;;
71790;SDS011;59638;52.126;5.434;2023-07-31T12:33:57;2.17;;;0.80;;
71790;SDS011;59638;52.126;5.434;2023-07-31T12:36:24;1.52;;;0.70;;
71790;SDS011;59638;52.126;5.434;2023-07-31T12:38:51;1.20;;;0.55;;
71790;SDS011;59638;52.126;5.434;2023-07-31T12:41:18;1.30;;;0.60;;
71790;SDS011;59638;52.126;5.434;2023-07-31T12:43:45;1.80;;;0.47;;
71790;SDS011;59638;52.126;5.434;2023-07-31T12:46:12;1.77;;;0.68;;
71790;SDS011;59638;52.126;5.434;2023-07-31T12:48:39;1.20;;;0.70;;
71790;SDS011;59638;52.126;5.434;2023-07-31T12:51:06;1.58;;;1.13;;
71790;SDS011;59638;52.126;5.434;2023-07-31T12:53:33;1.45;;;1.00;;
71790;SDS011;59638;52.126;5.434;2023-07-31T12:56:00;3.40;;;1.00;;
71790;SDS011;59638;52.126;5.434;2023-07-31T12:58:27;1.98;;;1.15;;
71790;SDS011;59638;52.126;5.434;2023-07-31T13:00:54;1.40;;;0.98;;
71790;SDS011;59638;52.126;5.434;2023-07-31T13:03:21;4.07;;;1.45;;
71790;SDS011;59638;52.126;5.434;2023-07-31T13:05:48;3.13;;;1.35;;
71790;SDS011;59638;52.126;5.434;2023-07-31T13:08:14;2.10;;;1.10;;
71790;SDS011;59638;52.126;5.434;2023-07-31T13:10:42;1.77;;;1.13;;
71790;SDS011;59638;52.126;5.434;2023-07-31T13:13:09;2.25;;;1.70;;
71790;SDS011;59638;52.126;5.434;2023-07-31T13:15:36;2.80;;;0.70;;
71790;SDS011;59638;52.126;5.434;2023-07-31T13:18:02;2.25;;;1.13;;
71790;SDS011;59638;52.126;5.434;2023-07-31T13:20:29;2.13;;;1.60;;
71790;SDS011;59638;52.126;5.434;2023-07-31T13:22:55;2.08;;;1.50;;
71790;SDS011;59638;52.126;5.434;2023-07-31T13:25:22;3.30;;;1.67;;
71790;SDS011;59638;52.126;5.434;2023-07-31T13:27:48;1.80;;;1.33;;
71790;SDS011;59638;52.126;5.434;2023-07-31T13:30:15;2.45;;;1.50;;
71790;SDS011;59638;52.126;5.434;2023-07-31T13:32:41;1.60;;;1.17;;
71790;SDS011;59638;52.126;5.434;2023-07-31T13:35:08;2.10;;;1.42;;
71790;SDS011;59638;52.126;5.434;2023-07-31T13:37:37;3.00;;;1.50;;
71790;SDS011;59638;52.126;5.434;2023-07-31T13:40:03;1.65;;;0.70;;
71790;SDS011;59638;52.126;5.434;2023-07-31T13:42:31;3.38;;;0.75;;
71790;SDS011;59638;52.126;5.434;2023-07-31T13:44:59;4.60;;;0.60;;
71790;SDS011;59638;52.126;5.434;2023-07-31T13:47:25;1.00;;;0.35;;
71790;SDS011;59638;52.126;5.434;2023-07-31T13:49:52;3.72;;;0.55;;
71790;SDS011;59638;52.126;5.434;2023-07-31T13:52:18;1.38;;;0.20;;
71790;SDS011;59638;52.126;5.434;2023-07-31T13:54:45;1.17;;;0.50;;
71790;SDS011;59638;52.126;5.434;2023-07-31T13:57:11;1.73;;;0.40;;
71790;SDS011;59638;52.126;5.434;2023-07-31T13:59:38;1.42;;;0.40;;
71790;SDS011;59638;52.126;5.434;2023-07-31T14:02:04;1.27;;;0.60;;
71790;SDS011;59638;52.126;5.434;2023-07-31T14:04:31;0.70;;;0.30;;
71790;SDS011;59638;52.126;5.434;2023-07-31T14:06:58;1.50;;;0.30;;
71790;SDS011;59638;52.126;5.434;2023-07-31T14:09:24;2.67;;;0.90;;
71790;SDS011;59638;52.126;5.434;2023-07-31T14:11:51;2.35;;;0.50;;
71790;SDS011;59638;52.126;5.434;2023-07-31T14:14:17;1.90;;;0.30;;
71790;SDS011;59638;52.126;5.434;2023-07-31T14:16:45;1.27;;;0.30;;
71790;SDS011;59638;52.126;5.434;2023-07-31T14:19:12;1.20;;;0.68;;
71790;SDS011;59638;52.126;5.434;2023-07-31T14:21:39;1.80;;;1.00;;
71790;SDS011;59638;52.126;5.434;2023-07-31T14:24:05;2.58;;;1.73;;
71790;SDS011;59638;52.126;5.434;2023-07-31T14:26:32;4.10;;;3.35;;
71790;SDS011;59638;52.126;5.434;2023-07-31T14:28:58;3.85;;;2.88;;
71790;SDS011;59638;52.126;5.434;2023-07-31T14:31:24;4.03;;;2.90;;
71790;SDS011;59638;52.126;5.434;2023-07-31T14:33:51;3.30;;;2.87;;
71790;SDS011;59638;52.126;5.434;2023-07-31T14:36:19;3.00;;;2.75;;
71790;SDS011;59638;52.126;5.434;2023-07-31T14:38:46;3.42;;;3.13;;
71790;SDS011;59638;52.126;5.434;2023-07-31T14:41:12;3.40;;;3.10;;
71790;SDS011;59638;52.126;5.434;2023-07-31T14:43:39;3.35;;;2.88;;
71790;SDS011;59638;52.126;5.434;2023-07-31T14:46:05;3.50;;;3.20;;
71790;SDS011;59638;52.126;5.434;2023-07-31T14:48:32;3.10;;;2.78;;
71790;SDS011;59638;52.126;5.434;2023-07-31T14:50:58;3.90;;;3.40;;
71790;SDS011;59638;52.126;5.434;2023-07-31T14:53:25;6.90;;;2.60;;
71790;SDS011;59638;52.126;5.434;2023-07-31T14:55:51;3.58;;;2.22;;
71790;SDS011;59638;52.126;5.434;2023-07-31T14:58:18;4.03;;;2.27;;
71790;SDS011;59638;52.126;5.434;2023-07-31T15:00:44;3.28;;;2.65;;
71790;SDS011;59638;52.126;5.434;2023-07-31T15:03:11;3.50;;;2.17;;
71790;SDS011;59638;52.126;5.434;2023-07-31T15:05:37;3.33;;;1.38;;